Time;durP1;ratioP1;P1;durP2;ratioP2;P2;SDS_P1;SDS_P2;PMS_P1;PMS_P2;Temp;Humidity;BMP_temperature;BMP_pressure;BME280_temperature;BME280_humidity;BME280_pressure;Samples;Min_cycle;Max_cycle;Signal;HPM_P1;HPM_P2
2022/04/10 00:00:31;;;;;;;7.03;2.92;;;;;;;3.23;74.54;100503.03;4845230;29;20080;-91
2022/04/10 00:03:22;;;;;;;3.95;2.78;;;;;;;3.56;75.08;100562.72;4836674;29;20049;-92
2022/04/10 00:05:53;;;;;;;6.70;2.60;;;;;;;3.24;74.83;100510.84;4833620;29;20117;-91
2022/04/10 00:08:21;;;;;;;5.32;2.90;;;;;;;3.21;74.34;100521.38;4839866;29;20046;-91
2022/04/10 00:10:49;;;;;;;5.75;3.05;;;;;;;3.67;72.78;100584.34;4840621;29;20625;-92
2022/04/10 00:13:29;;;;;;;6.03;2.92;;;;;;;3.44;72.79;100549.81;4839633;29;20073;-92
2022/04/10 00:16:27;;;;;;;;;;;;;;;;;;;;;
2022/04/10 00:19:04;;;;;;;5.72;3.10;;;;;;;3.48;73.80;100561.97;4835059;29;20092;-91
2022/04/10 00:21:34;;;;;;;6.75;3.38;;;;;;;3.30;72.69;100530.84;4893031;29;20047;-92
2022/04/10 00:24:05;;;;;;;6.65;3.05;;;;;;;3.39;73.73;100543.78;4934158;29;20051;-92
2022/04/10 00:26:37;;;;;;;6.03;3.00;;;;;;;3.23;73.05;100510.88;4930309;29;20048;-91
2022/04/10 00:29:04;;;;;;;5.95;3.17;;;;;;;3.45;73.23;100556.78;4936042;29;20063;-91
2022/04/10 00:31:35;;;;;;;5.22;3.35;;;;;;;3.32;73.00;100536.91;4935484;29;20067;-92
2022/04/10 00:34:05;;;;;;;6.10;2.88;;;;;;;3.31;73.80;100530.81;4934902;29;20051;-91
2022/04/10 00:36:41;;;;;;;8.27;3.38;;;;;;;3.37;73.78;100548.19;4933645;29;20516;-92
2022/04/10 00:39:08;;;;;;;6.63;3.30;;;;;;;3.16;73.68;100518.81;4930844;29;20055;-92
2022/04/10 00:41:38;;;;;;;8.02;3.40;;;;;;;3.54;74.42;100593.28;4935688;29;20536;-91
2022/04/10 00:44:12;;;;;;;9.15;3.30;;;;;;;3.10;74.80;100518.06;4935196;29;20496;-92
2022/04/10 00:46:39;;;;;;;6.72;3.35;;;;;;;3.51;74.87;100591.59;4935526;29;20497;-92
2022/04/10 00:49:10;;;;;;;6.07;2.92;;;;;;;3.12;75.25;100525.00;4932994;29;20067;-93
2022/04/10 00:51:46;;;;;;;7.07;2.90;;;;;;;3.27;74.27;100555.31;4937733;29;20055;-92
2022/04/10 00:54:30;;;;;;;6.05;3.40;;;;;;;3.51;74.57;100588.97;4934136;29;20052;-91
2022/04/10 00:57:12;;;;;;;6.50;2.70;;;;;;;3.52;73.52;100597.69;4933666;29;20495;-93
2022/04/10 00:59:40;;;;;;;9.77;3.28;;;;;;;3.37;74.27;100571.72;4932837;29;20048;-92
2022/04/10 01:02:12;;;;;;;5.75;2.85;;;;;;;3.10;73.83;100529.38;4934637;29;20126;-92
2022/04/10 01:04:43;;;;;;;4.43;2.78;;;;;;;3.11;73.06;100541.59;4918957;29;20058;-92
2022/04/10 01:07:14;;;;;;;6.93;3.10;;;;;;;3.25;73.02;100559.69;4935766;29;20425;-92
2022/04/10 01:10:00;;;;;;;7.07;2.70;;;;;;;3.47;73.91;100609.97;4934013;29;20155;-91
2022/04/10 01:12:29;;;;;;;8.65;3.50;;;;;;;3.45;72.76;100609.16;4933744;29;20130;-92
2022/04/10 01:15:09;;;;;;;6.50;3.33;;;;;;;3.08;73.40;100551.22;4928900;29;20044;-92
2022/04/10 01:17:37;;;;;;;6.32;2.95;;;;;;;3.35;72.56;100586.59;4934040;29;20142;-91
2022/04/10 01:20:09;;;;;;;4.55;3.08;;;;;;;3.30;73.15;100573.59;4932677;29;20063;-91
2022/04/10 01:22:40;;;;;;;6.10;3.15;;;;;;;3.04;72.89;100539.94;4903981;29;20417;-92
2022/04/10 01:25:10;;;;;;;7.18;3.10;;;;;;;3.50;72.04;100616.03;4929832;29;20048;-91
2022/04/10 01:27:40;;;;;;;4.80;2.90;;;;;;;3.27;72.32;100578.00;4932824;29;20063;-91
2022/04/10 01:30:13;;;;;;;5.10;2.75;;;;;;;3.35;71.50;100591.81;4921488;29;20139;-92
2022/04/10 01:32:42;;;;;;;4.75;2.63;;;;;;;3.48;71.99;100604.72;4916370;29;20051;-91
2022/04/10 01:35:13;;;;;;;3.38;2.65;;;;;;;3.13;71.74;100559.88;4916306;29;20119;-92
2022/04/10 01:37:40;;;;;;;6.78;2.67;;;;;;;3.25;71.39;100579.78;4914025;29;20060;-93
2022/04/10 01:40:10;;;;;;;3.97;2.40;;;;;;;3.12;71.38;100561.63;4915757;29;20143;-91
2022/04/10 01:42:39;;;;;;;4.10;2.40;;;;;;;3.26;71.34;100584.13;4916878;29;20060;-93
2022/04/10 01:45:07;;;;;;;4.97;2.67;;;;;;;3.12;71.58;100566.88;4917452;29;20052;-91
2022/04/10 01:47:39;;;;;;;8.20;2.80;;;;;;;3.20;71.53;100579.81;4914742;29;20115;-92
2022/04/10 01:50:07;;;;;;;7.88;2.80;;;;;;;2.95;71.74;100539.19;4919864;29;20171;-90
2022/04/10 01:52:37;;;;;;;5.30;2.70;;;;;;;3.11;72.19;100574.72;4919390;29;20120;-93
2022/04/10 01:55:05;;;;;;;4.80;2.50;;;;;;;2.94;71.52;100543.56;4920519;29;20048;-92
2022/04/10 01:57:37;;;;;;;7.93;2.85;;;;;;;3.35;72.31;100613.63;4926725;29;20052;-91
2022/04/10 02:00:10;;;;;;;4.72;2.67;;;;;;;3.11;72.43;100579.97;4927533;29;20052;-92
2022/04/10 02:03:53;;;;;;;6.55;2.58;;;;;;;3.40;71.45;100621.44;4923379;29;20215;-93
2022/04/10 02:07:41;;;;;;;7.72;3.00;;;;;;;3.35;71.82;100616.25;4920612;29;20047;-91
2022/04/10 02:11:22;;;;;;;6.20;2.60;;;;;;;3.31;71.04;100624.16;4921495;29;21767;-91
2022/04/10 07:20:30;;;;;;;8.90;4.00;;;;;;;5.83;60.72;100832.22;4934352;28;20131;-95
2022/04/10 07:25:55;;;;;;;8.70;4.15;;;;;;;5.80;60.95;100819.19;4939509;29;20044;-92
2022/04/10 07:28:26;;;;;;;7.82;4.13;;;;;;;6.19;60.08;100874.47;4939296;29;20516;-93
2022/04/10 07:30:55;;;;;;;6.40;4.50;;;;;;;5.84;60.64;100804.19;4941000;29;20103;-94
2022/04/10 07:33:24;;;;;;;7.35;4.57;;;;;;;6.06;60.20;100813.41;4939378;29;20051;-94
2022/04/10 07:36:13;;;;;;;6.63;4.40;;;;;;;6.45;59.79;100851.09;4939058;29;20079;-95
2022/04/10 07:38:44;;;;;;;7.03;4.40;;;;;;;6.51;57.91;100822.00;4942277;29;20064;-94
2022/04/10 07:41:14;;;;;;;7.82;4.55;;;;;;;6.66;57.75;100842.69;4942085;29;20040;-93
2022/04/10 07:43:44;;;;;;;6.45;4.07;;;;;;;6.49;57.80;100812.41;4940542;29;20043;-93
2022/04/10 07:49:00;;;;;;;8.50;4.78;;;;;;;6.25;58.83;100822.63;4941347;29;20131;-94
2022/04/10 07:51:28;;;;;;;7.60;5.10;;;;;;;6.25;60.04;100829.63;4938929;29;20098;-93
2022/04/10 07:54:22;;;;;;;8.43;5.25;;;;;;;6.27;59.93;100848.88;4944713;29;20044;-96
2022/04/10 07:56:49;;;;;;;;;;;;;;;6.68;59.73;100890.91;4937152;29;20058;-93
2022/04/10 07:59:23;;;;;;;6.95;5.20;;;;;;;6.54;58.72;100850.00;4948155;29;19933;-93
2022/04/10 08:01:54;;;;;;;8.15;5.90;;;;;;;6.59;59.20;100864.81;4938903;29;20059;-92
2022/04/10 08:05:16;;;;;;;6.32;5.22;;;;;;;6.56;59.40;100861.38;4939947;29;20058;-89
2022/04/10 08:08:03;;;;;;;10.98;6.18;;;;;;;6.58;59.27;100870.97;4886505;29;20150;-92
2022/04/10 08:10:32;;;;;;;7.13;5.40;;;;;;;6.78;59.31;100877.50;4922680;29;20143;-92
2022/04/10 08:13:02;;;;;;;7.68;4.57;;;;;;;6.90;60.14;100882.50;4924866;29;20050;-93
2022/04/10 08:15:31;;;;;;;6.55;4.80;;;;;;;6.62;58.75;100846.28;4940644;29;20063;-94
2022/04/10 08:17:58;;;;;;;6.65;4.93;;;;;;;6.92;57.84;100876.31;4936970;29;20074;-91
2022/04/10 08:20:35;;;;;;;10.38;5.13;;;;;;;6.57;58.62;100842.91;4939496;29;20066;-91
2022/04/10 08:23:23;;;;;;;8.73;5.05;;;;;;;6.74;59.72;100870.59;4941691;29;20060;-92
2022/04/10 08:25:55;;;;;;;8.93;5.20;;;;;;;7.17;58.21;100909.91;4921923;29;20166;-91
2022/04/10 08:28:50;;;;;;;6.78;4.80;;;;;;;7.06;57.61;100875.09;4937758;29;20054;-90
2022/04/10 08:31:35;;;;;;;8.32;5.18;;;;;;;6.94;57.94;100874.47;4943177;29;20051;-90
2022/04/10 08:34:08;;;;;;;6.43;5.03;;;;;;;7.29;58.82;100912.22;4940801;29;20053;-93
2022/04/10 08:36:39;;;;;;;8.02;4.97;;;;;;;7.16;58.47;100895.88;4945195;29;20039;-92
2022/04/10 08:39:12;;;;;;;8.93;5.10;;;;;;;7.10;58.32;100917.09;4948225;29;20048;-90
2022/04/10 08:41:55;;;;;;;8.90;5.40;;;;;;;6.39;60.63;100859.13;4956289;29;20067;-90
2022/04/10 08:44:29;;;;;;;9.25;5.07;;;;;;;6.93;60.46;100912.22;4939505;29;20043;-92
2022/04/10 08:47:00;;;;;;;9.27;5.15;;;;;;;6.97;59.76;100881.44;4951980;29;20036;-94
2022/04/10 08:49:32;;;;;;;7.23;5.13;;;;;;;7.14;58.90;100879.25;4949032;29;20158;-92
2022/04/10 08:52:10;;;;;;;8.85;4.80;;;;;;;7.39;58.57;100909.34;4942706;29;20494;-88
2022/04/10 08:54:41;;;;;;;;;;;;;;;7.39;58.94;100930.44;4946114;29;20043;-94
2022/04/10 08:57:19;;;;;;;9.35;5.18;;;;;;;6.93;59.29;100885.03;4940914;29;19923;-93
2022/04/10 09:00:04;;;;;;;10.45;5.35;;;;;;;6.80;59.98;100891.50;4942960;29;20110;-90
2022/04/10 09:02:48;;;;;;;;;;;;;;;6.90;60.58;100922.84;4940641;29;20047;-90
2022/04/10 09:05:24;;;;;;;12.57;5.35;;;;;;;6.75;61.24;100859.19;4941697;29;19998;-92
2022/04/10 09:08:12;;;;;;;8.90;6.00;;;;;;;7.47;60.28;100922.31;4937572;29;20131;-91
2022/04/10 09:10:57;;;;;;;10.00;6.07;;;;;;;7.63;60.01;100920.13;4937054;29;20058;-93
2022/04/10 09:13:59;;;;;;;9.70;5.68;;;;;;;7.39;59.11;100864.56;4928811;29;20051;-94
2022/04/10 09:16:28;;;;;;;8.82;6.45;;;;;;;7.94;59.80;100933.34;4934587;29;20062;-90
2022/04/10 09:19:10;;;;;;;10.68;5.78;;;;;;;8.59;57.04;100914.78;4935255;29;20059;-95
2022/04/10 09:21:43;;;;;;;;;;;;;;;9.24;53.90;100933.84;4940888;29;20055;-91
2022/04/10 09:24:12;;;;;;;9.23;6.07;;;;;;;9.59;53.75;100908.00;4924090;29;20387;-92
2022/04/10 09:26:55;;;;;;;10.85;5.38;;;;;;;10.19;51.32;100863.47;4941792;29;20048;-93
2022/04/10 09:29:28;;;;;;;6.88;4.78;;;;;;;10.81;49.52;100896.38;4940181;29;20055;-91
2022/04/10 09:31:57;;;;;;;8.98;4.18;;;;;;;10.76;48.00;100878.00;4942147;29;20059;-92
2022/04/10 09:34:34;;;;;;;7.88;4.47;;;;;;;11.43;47.87;100890.25;4947429;29;20115;-91
2022/04/10 09:37:42;;;;;;;7.30;4.00;;;;;;;11.44;46.77;100894.63;4937017;29;20052;-91
2022/04/10 09:40:24;;;;;;;6.13;4.00;;;;;;;12.00;45.93;100909.91;4946350;29;20091;-92
2022/04/10 09:43:10;;;;;;;7.80;4.03;;;;;;;11.97;45.23;100841.88;4935528;29;20139;-89
2022/04/10 09:45:49;;;;;;;7.28;3.63;;;;;;;12.58;43.17;100844.34;4936717;29;20055;-91
2022/04/10 09:48:24;;;;;;;8.07;3.47;;;;;;;13.42;40.86;100894.22;4936378;29;20130;-90
2022/04/10 09:51:03;;;;;;;5.00;2.92;;;;;;;13.93;39.58;100916.44;4942425;29;20055;-92
2022/04/10 09:53:43;;;;;;;4.97;3.00;;;;;;;13.81;39.12;100872.69;4937243;29;20058;-92
2022/04/10 09:56:39;;;;;;;6.32;3.00;;;;;;;13.98;39.20;100914.41;4945514;29;20052;-93
2022/04/10 09:59:35;;;;;;;6.70;3.40;;;;;;;13.86;38.46;100845.81;4947419;29;20076;-93
2022/04/10 10:02:05;;;;;;;6.65;3.40;;;;;;;14.18;38.65;100897.34;4937934;29;20060;-94
2022/04/10 10:04:41;;;;;;;6.55;2.92;;;;;;;13.48;38.59;100838.06;4937744;29;20060;-93
2022/04/10 10:07:20;;;;;;;7.75;3.13;;;;;;;12.95;40.05;100844.25;4939796;29;20095;-96
2022/04/10 10:10:22;;;;;;;7.28;2.60;;;;;;;12.64;41.44;100910.47;4938499;29;20048;-93
2022/04/10 10:12:56;;;;;;;7.72;3.55;;;;;;;11.99;42.60;100884.28;4937336;29;20062;-91
2022/04/10 10:15:44;;;;;;;6.63;3.60;;;;;;;10.95;44.46;100853.41;4938237;29;20044;-92
2022/04/10 10:19:02;;;;;;;;;;;;;;;;;;;;;
2022/04/10 10:22:01;;;;;;;6.10;3.20;;;;;;;10.33;45.95;100875.31;4914303;29;20051;-94
2022/04/10 10:25:08;;;;;;;7.03;3.30;;;;;;;9.80;47.52;100864.91;4916742;29;20079;-94
2022/04/10 10:28:27;;;;;;;7.40;3.50;;;;;;;9.66;49.78;100898.91;4918410;29;20465;-92
2022/04/10 10:31:33;;;;;;;6.28;3.47;;;;;;;9.40;49.91;100892.75;4918112;29;20066;-93
2022/04/10 10:34:43;;;;;;;5.35;3.35;;;;;;;9.24;49.15;100893.34;4917189;29;20142;-94
2022/04/10 10:37:14;;;;;;;7.45;3.47;;;;;;;9.29;48.70;100814.72;4919589;29;20454;-96
2022/04/10 10:40:17;;;;;;;6.53;3.50;;;;;;;9.48;49.33;100874.84;4903476;29;20514;-91
2022/04/10 10:46:53;;;;;;;9.05;4.20;;;;;;;9.39;48.96;100850.53;4923386;29;20044;-92
2022/04/10 10:49:28;;;;;;;6.40;3.05;;;;;;;9.56;48.44;100853.44;4927359;29;20085;-92
2022/04/10 10:52:13;;;;;;;6.97;3.08;;;;;;;9.36;48.70;100809.19;4927718;29;20052;-93
2022/04/10 10:54:58;;;;;;;6.68;3.17;;;;;;;10.49;47.54;100871.16;4920021;29;20049;-94
2022/04/10 10:58:10;;;;;;;4.57;3.30;;;;;;;11.07;44.78;100808.72;4911200;29;20052;-92
2022/04/10 11:00:55;;;;;;;7.18;2.97;;;;;;;10.74;43.82;100789.78;4937114;29;20086;-90
2022/04/10 11:04:21;;;;;;;;;;;;;;;;;;;;;
2022/04/10 11:07:39;;;;;;;8.38;2.45;;;;;;;10.74;43.34;100800.38;4927826;29;20087;-96
2022/04/10 11:13:46;;;;;;;7.32;3.20;;;;;;;11.07;42.33;100797.25;5140152;23;20060;-93
2022/04/10 11:16:18;;;;;;;5.45;2.30;;;;;;;12.22;41.24;100852.25;4930768;29;20055;-95
2022/04/10 11:18:50;;;;;;;5.60;2.78;;;;;;;13.03;39.62;100792.53;4911591;29;20094;-95
2022/04/10 11:21:26;;;;;;;8.55;2.53;;;;;;;14.51;36.40;100842.25;4913926;29;20063;-95
2022/04/10 11:24:23;;;;;;;5.95;2.65;;;;;;;15.05;35.67;100856.91;4917369;29;20134;-93
2022/04/10 11:27:50;;;;;;;5.35;2.42;;;;;;;14.12;36.86;100863.06;4917389;29;20050;-94
2022/04/10 11:31:04;;;;;;;8.38;2.72;;;;;;;13.04;38.67;100811.06;4928829;29;20052;-95
2022/04/10 11:33:49;;;;;;;6.88;2.78;;;;;;;12.32;39.70;100773.00;4923651;29;20134;-93
2022/04/10 11:36:56;;;;;;;4.97;2.03;;;;;;;11.69;40.25;100804.22;4924126;29;20804;-94
2022/04/10 11:39:51;;;;;;;4.88;2.20;;;;;;;10.99;41.53;100808.19;4921005;29;20051;-92
2022/04/10 11:42:34;;;;;;;7.45;2.20;;;;;;;10.48;43.08;100803.22;4925882;29;20060;-94
2022/04/10 11:45:17;;;;;;;5.45;2.30;;;;;;;10.31;43.67;100825.06;4932192;29;20044;-94
2022/04/10 11:48:05;;;;;;;6.97;2.50;;;;;;;9.90;44.91;100796.66;4926748;29;20052;-93
2022/04/10 11:50:41;;;;;;;5.82;2.65;;;;;;;9.86;45.60;100851.47;4931198;29;20048;-93
2022/04/10 11:54:04;;;;;;;;;;;;;;;;;;;;;
2022/04/10 11:56:43;;;;;;;5.22;2.47;;;;;;;9.08;47.05;100787.31;4920275;29;20101;-94
2022/04/10 11:59:52;;;;;;;4.53;2.10;;;;;;;9.13;46.35;100809.13;4920914;29;20074;-92
2022/04/10 12:02:25;;;;;;;4.20;2.20;;;;;;;9.12;47.39;100832.06;4921596;29;20056;-92
2022/04/10 12:05:06;;;;;;;4.47;1.73;;;;;;;9.35;45.82;100854.19;4927110;29;20107;-92
2022/04/10 12:07:41;;;;;;;;;;;;;;;9.38;43.50;100852.31;4921745;29;20055;-92
2022/04/10 12:10:26;;;;;;;3.70;1.50;;;;;;;9.15;42.60;100789.66;4915167;29;19923;-95
2022/04/10 12:13:10;;;;;;;2.95;1.55;;;;;;;9.83;42.36;100859.50;4916042;29;20064;-93
2022/04/10 12:15:50;;;;;;;2.72;1.50;;;;;;;10.27;41.17;100849.06;4920155;29;20068;-94
2022/04/10 12:19:07;;;;;;;2.00;1.02;;;;;;;10.89;39.97;100860.69;4902752;29;20040;-92
2022/04/10 12:21:51;;;;;;;2.00;1.20;;;;;;;11.43;38.80;100859.31;5011958;23;20088;-93
2022/04/10 12:24:35;;;;;;;3.35;1.42;;;;;;;11.59;38.25;100835.63;4902643;29;20063;-93
2022/04/10 12:27:25;;;;;;;2.47;1.55;;;;;;;11.53;36.87;100818.19;4898363;29;20056;-92
2022/04/10 12:30:24;;;;;;;;;;;;;;;;;;;;;
2022/04/10 12:33:09;;;;;;;1.60;1.27;;;;;;;11.23;38.22;100774.44;4901771;29;20506;-91
2022/04/10 12:35:59;;;;;;;3.45;1.40;;;;;;;11.75;37.49;100817.25;4892652;29;20059;-91
2022/04/10 12:38:44;;;;;;;2.95;1.70;;;;;;;11.77;36.92;100786.22;4911055;29;20049;-95
2022/04/10 12:41:38;;;;;;;3.80;1.52;;;;;;;12.50;36.24;100825.25;4911082;29;20080;-91
2022/04/10 12:44:23;;;;;;;4.68;1.80;;;;;;;13.80;34.65;100849.69;4910054;29;20052;-93
2022/04/10 12:47:16;;;;;;;2.08;1.40;;;;;;;13.98;32.41;100776.81;4908476;29;20086;-92
2022/04/10 12:50:14;;;;;;;3.90;1.48;;;;;;;16.07;31.48;100824.00;4909495;29;20048;-93
2022/04/10 12:53:02;;;;;;;2.50;1.40;;;;;;;17.88;27.61;100765.50;4904133;29;20052;-92
2022/04/10 12:55:38;;;;;;;2.92;1.55;;;;;;;18.13;26.00;100760.06;4900076;29;20083;-89
2022/04/10 12:58:50;;;;;;;1.85;1.10;;;;;;;19.05;24.91;100801.56;4914536;29;20032;-94
2022/04/10 13:01:43;;;;;;;;;;;;;;;19.18;24.26;100823.84;4904333;29;20059;-91
2022/04/10 13:13:14;;;;;;;4.10;1.60;;;;;;;13.77;32.31;100828.53;4901476;29;20048;-95
2022/04/10 13:16:14;;;;;;;2.08;1.35;;;;;;;13.33;33.26;100830.88;4906424;29;20044;-93
2022/04/10 13:19:01;;;;;;;2.42;1.90;;;;;;;12.46;35.18;100759.91;4888594;29;20104;-94
2022/04/10 13:21:50;;;;;;;4.28;2.10;;;;;;;13.08;33.69;100796.66;4902472;29;20056;-95
2022/04/10 13:24:37;;;;;;;3.70;1.92;;;;;;;13.99;33.34;100841.56;4904343;29;20064;-93
2022/04/10 13:27:36;;;;;;;;;;;;;;;;;;;;;
2022/04/10 13:30:32;;;;;;;;;;;;;;;;;;;;;
2022/04/10 13:33:20;;;;;;;;;;;;;;;;;;;;;
2022/04/10 13:36:21;;;;;;;3.92;2.05;;;;;;;19.23;23.59;100813.59;4906364;29;20061;-94
2022/04/10 13:39:21;;;;;;;1.98;1.50;;;;;;;20.22;22.44;100805.81;4909864;29;20076;-92
2022/04/10 13:45:10;;;;;;;3.35;1.25;;;;;;;21.91;21.20;100810.38;5237159;23;20059;-91
2022/04/10 13:48:08;;;;;;;2.13;1.50;;;;;;;22.32;19.47;100763.59;4932282;29;20039;-94
2022/04/10 13:50:43;;;;;;;2.15;1.50;;;;;;;22.37;19.48;100742.44;4928230;29;20040;-93
2022/04/10 13:54:07;;;;;;;;;;;;;;;;;;;;;
2022/04/10 13:56:51;;;;;;;3.75;1.40;;;;;;;22.76;19.34;100719.03;4918536;29;20117;-91
2022/04/10 13:59:50;;;;;;;;;;;;;;;;;;;;;
2022/04/10 14:02:43;;;;;;;;;;;;;;;;;;;;;
2022/04/10 14:05:26;;;;;;;3.08;1.45;;;;;;;17.59;25.36;100797.00;4937728;29;20138;-91
2022/04/10 14:08:45;;;;;;;4.20;1.58;;;;;;;15.37;28.48;100796.31;4927677;29;20062;-95
2022/04/10 14:11:37;;;;;;;3.63;1.40;;;;;;;14.31;30.66;100789.19;4933588;29;20079;-92
2022/04/10 14:14:14;;;;;;;5.57;1.73;;;;;;;13.21;31.99;100712.69;4938439;29;20059;-95
2022/04/10 14:16:56;;;;;;;2.47;1.52;;;;;;;12.81;32.21;100731.59;4938672;29;20071;-93
2022/04/10 14:19:50;;;;;;;3.00;1.40;;;;;;;12.60;32.04;100712.28;4917900;29;20397;-93
2022/04/10 14:22:47;;;;;;;2.92;1.60;;;;;;;12.59;32.65;100763.72;4936267;29;20103;-95
2022/04/10 14:25:40;;;;;;;2.70;1.60;;;;;;;12.65;33.44;100792.63;4942031;29;20507;-93
2022/04/10 14:28:14;;;;;;;4.07;1.55;;;;;;;12.93;33.50;100792.09;4940337;29;20093;-93
2022/04/10 14:30:45;;;;;;;;;;;;;;;13.74;32.26;100780.78;4941293;29;20051;-94
2022/04/10 14:33:52;;;;;;;3.88;1.77;;;;;;;14.18;31.23;100778.34;4942933;29;19953;-96
2022/04/10 14:36:38;;;;;;;3.95;1.58;;;;;;;15.30;28.97;100700.69;4891554;29;20069;-93
2022/04/10 14:39:10;;;;;;;4.63;1.60;;;;;;;17.77;26.03;100715.38;4879615;29;20083;-92
2022/04/10 14:42:12;;;;;;;4.15;1.40;;;;;;;21.07;22.89;100771.00;4950757;29;20491;-93
2022/04/10 14:45:02;;;;;;;4.20;1.77;;;;;;;23.87;19.60;100729.22;4941563;29;20071;-94
2022/04/10 14:47:50;;;;;;;5.95;1.40;;;;;;;25.44;18.09;100758.44;4945861;29;20055;-93
2022/04/10 14:50:21;;;;;;;3.03;1.23;;;;;;;25.75;15.71;100703.72;4939096;29;20044;-90
2022/04/10 14:53:15;;;;;;;1.23;0.90;;;;;;;26.69;14.02;100753.25;4931485;29;20138;-92
2022/04/10 14:55:52;;;;;;;2.20;1.10;;;;;;;25.38;15.57;100723.81;4943446;29;20052;-92
2022/04/10 14:58:35;;;;;;;1.90;1.00;;;;;;;24.38;16.88;100715.16;4944431;29;20059;-93
2022/04/10 15:01:08;;;;;;;2.72;1.38;;;;;;;25.47;15.56;100750.00;4946535;29;20067;-92
2022/04/10 15:03:40;;;;;;;1.85;0.88;;;;;;;26.40;14.79;100752.84;4942383;29;20078;-90
2022/04/10 15:06:08;;;;;;;2.63;1.23;;;;;;;26.43;14.52;100731.66;4924532;29;20048;-89
2022/04/10 15:08:39;;;;;;;3.83;1.42;;;;;;;25.81;15.05;100705.81;4936490;29;20048;-91
2022/04/10 15:11:09;;;;;;;3.90;1.80;;;;;;;25.97;14.88;100738.44;4944586;29;20107;-91
2022/04/10 15:13:43;;;;;;;3.45;2.05;;;;;;;26.40;14.84;100731.13;4947636;29;20043;-90
2022/04/10 15:16:24;;;;;;;3.10;1.35;;;;;;;26.19;14.88;100724.25;4946526;29;20052;-92
2022/04/10 15:18:56;;;;;;;5.05;1.42;;;;;;;26.20;14.68;100749.53;4933092;29;20614;-89
2022/04/10 15:21:28;;;;;;;3.38;1.58;;;;;;;26.23;15.31;100751.06;4945131;29;20048;-91
2022/04/10 15:23:59;;;;;;;3.55;1.40;;;;;;;25.84;15.21;100748.84;4946865;29;20071;-90
2022/04/10 15:26:29;;;;;;;2.85;1.48;;;;;;;26.15;15.09;100717.44;4942643;29;20135;-87
2022/04/10 15:29:10;;;;;;;3.35;1.27;;;;;;;26.12;15.00;100684.38;4940019;29;20079;-93
2022/04/10 15:32:29;;;;;;;2.28;1.25;;;;;;;26.82;14.97;100753.59;4917284;29;20058;-94
2022/04/10 15:38:44;;;;;;;3.05;1.70;;;;;;;23.15;18.41;100721.72;4888618;29;20056;-94
2022/04/10 15:45:24;;;;;;;3.15;1.80;;;;;;;25.82;16.62;100721.03;4882944;29;20089;-94
2022/04/10 15:48:20;;;;;;;;;;;;;;;;;;;;;
2022/04/10 15:51:28;;;;;;;3.17;1.95;;;;;;;26.02;17.11;100740.63;4885200;29;20088;-93
2022/04/10 15:54:25;;;;;;;3.72;1.92;;;;;;;25.64;16.83;100690.47;4879893;29;20053;-93
2022/04/10 15:57:35;;;;;;;3.22;1.63;;;;;;;26.00;17.04;100720.94;4884751;29;20101;-89
2022/04/10 16:00:40;;;;;;;3.75;2.00;;;;;;;25.83;16.88;100704.59;4881440;29;20079;-95
2022/04/10 16:03:43;;;;;;;;;;;;;;;;;;;;;
2022/04/10 16:06:36;;;;;;;4.57;1.50;;;;;;;24.53;16.54;100751.53;4878897;29;20172;-91
2022/04/10 16:09:52;;;;;;;4.43;1.70;;;;;;;24.45;17.20;100752.28;4876244;29;20041;-91
2022/04/10 16:12:11;;;;;;;2.30;1.42;;;;;;;24.24;17.52;100708.38;4898669;29;20078;-90
2022/04/10 16:14:51;;;;;;;3.95;1.60;;;;;;;22.97;17.10;100689.22;4947943;29;20056;-94
2022/04/10 16:17:32;;;;;;;2.33;1.25;;;;;;;22.53;18.16;100713.03;4929061;29;20158;-93
2022/04/10 16:20:04;;;;;;;3.88;1.88;;;;;;;21.95;19.30;100682.41;4942643;29;20047;-91
2022/04/10 16:22:45;;;;;;;3.83;1.75;;;;;;;19.06;23.48;100704.81;4942522;29;20058;-92
2022/04/10 16:25:22;;;;;;;5.78;1.83;;;;;;;18.15;23.84;100762.66;4945719;29;20055;-92
2022/04/10 16:31:55;;;;;;;3.10;1.25;;;;;;;15.68;25.54;100691.19;4890252;29;20084;-92
2022/04/10 16:34:56;;;;;;;2.00;1.23;;;;;;;14.98;26.48;100703.53;4876020;29;20135;-91
2022/04/10 16:42:22;;;;;;;;;;;;;;;;;;;;;
2022/04/10 16:46:22;;;;;;;3.45;2.00;;;;;;;12.81;31.22;100728.94;4860317;29;20512;-92
2022/04/10 16:53:40;;;;;;;3.10;1.77;;;;;;;12.26;32.66;100724.59;4769318;29;20062;-89
2022/04/10 16:56:27;;;;;;;5.30;1.83;;;;;;;11.98;32.53;100694.13;4883596;29;20144;-90
2022/04/10 16:59:48;;;;;;;;;;;;;;;;;;;;;
2022/04/10 17:06:16;;;;;;;4.93;1.85;;;;;;;11.96;34.91;100754.41;4907570;29;20091;-92
2022/04/10 17:09:26;;;;;;;3.92;1.55;;;;;;;11.73;34.00;100766.03;4918617;29;20045;-93
2022/04/10 17:12:18;;;;;;;3.08;1.70;;;;;;;11.36;35.44;100730.56;4911615;29;20049;-92
2022/04/10 17:15:03;;;;;;;3.70;1.77;;;;;;;11.46;35.75;100762.84;4910638;29;20068;-89
2022/04/10 17:18:11;;;;;;;6.03;2.20;;;;;;;11.24;35.86;100749.66;5183859;23;20087;-94
2022/04/10 17:20:42;;;;;;;5.20;2.50;;;;;;;11.00;36.71;100729.56;4926422;29;20072;-90
2022/04/10 17:23:38;;;;;;;6.05;1.90;;;;;;;10.80;36.77;100722.44;4925273;29;20055;-94
2022/04/10 17:26:24;;;;;;;4.85;2.00;;;;;;;10.60;36.93;100707.41;4925335;29;20052;-93
2022/04/10 17:29:09;;;;;;;4.15;2.00;;;;;;;10.95;37.10;100784.53;4924288;29;20108;-94
2022/04/10 17:31:51;;;;;;;4.15;2.13;;;;;;;10.66;36.90;100735.41;4923371;29;20083;-93
2022/04/10 17:34:25;;;;;;;4.15;2.05;;;;;;;10.47;36.49;100715.00;4924547;29;20055;-91
2022/04/10 17:37:00;;;;;;;6.45;2.50;;;;;;;10.59;37.03;100750.69;4902264;29;20059;-92
2022/04/10 17:39:29;;;;;;;3.65;2.10;;;;;;;10.57;37.65;100768.41;4917987;29;20515;-91
2022/04/10 17:42:01;;;;;;;4.07;1.85;;;;;;;10.30;37.90;100757.16;4925465;29;20123;-91
2022/04/10 17:44:31;;;;;;;5.13;2.20;;;;;;;10.17;38.23;100753.25;4922905;29;20071;-92
2022/04/10 17:47:32;;;;;;;5.13;2.33;;;;;;;9.91;38.75;100729.63;4924344;29;20032;-91
2022/04/10 17:53:14;;;;;;;5.72;2.45;;;;;;;9.61;40.12;100740.41;4927623;28;20081;-92
2022/04/10 17:55:43;;;;;;;6.03;3.22;;;;;;;9.85;39.94;100799.47;4922566;29;20632;-91
2022/04/10 17:58:10;;;;;;;5.28;1.92;;;;;;;9.63;39.65;100772.09;4907102;29;20464;-91
2022/04/10 18:00:50;;;;;;;5.00;2.20;;;;;;;9.26;40.24;100730.31;4921864;29;20088;-92
2022/04/10 18:03:40;;;;;;;6.00;4.20;;;;;;;9.41;40.68;100777.31;4929443;29;20063;-91
2022/04/10 18:06:19;;;;;;;8.85;5.65;;;;;;;9.35;42.15;100777.53;4928787;29;20048;-90
2022/04/10 18:08:58;;;;;;;10.32;5.28;;;;;;;9.14;43.66;100773.84;4900743;29;20135;-93
2022/04/10 18:12:16;;;;;;;6.07;3.15;;;;;;;8.71;44.97;100727.81;4924882;29;20068;-90
2022/04/10 18:15:11;;;;;;;8.55;4.10;;;;;;;8.55;46.44;100733.66;4926449;29;20052;-91
2022/04/10 18:17:58;;;;;;;5.68;3.17;;;;;;;8.67;47.52;100773.69;4925003;29;20044;-91
2022/04/10 18:21:00;;;;;;;4.97;2.85;;;;;;;8.51;47.96;100782.16;4924297;29;20129;-92
2022/04/10 18:23:57;;;;;;;7.07;4.18;;;;;;;8.35;49.22;100769.47;4922914;29;20056;-90
2022/04/10 18:26:39;;;;;;;5.97;3.50;;;;;;;8.35;49.33;100787.94;4929701;29;20068;-91
2022/04/10 18:29:17;;;;;;;7.72;3.40;;;;;;;8.47;50.00;100817.50;4923789;29;20070;-90
2022/04/10 18:31:59;;;;;;;6.03;3.67;;;;;;;8.09;49.92;100772.03;4919706;29;20832;-90
2022/04/10 18:34:36;;;;;;;7.90;5.00;;;;;;;7.94;50.45;100757.53;4932446;29;20183;-89
2022/04/10 18:37:04;;;;;;;10.40;5.90;;;;;;;7.90;51.03;100761.19;4936804;29;20072;-88
2022/04/10 18:39:34;;;;;;;6.25;4.07;;;;;;;7.90;51.00;100763.81;4939761;29;20088;-90
2022/04/10 18:42:21;;;;;;;5.88;3.90;;;;;;;8.01;51.49;100796.03;4931221;29;20410;-90
2022/04/10 18:44:52;;;;;;;8.98;3.95;;;;;;;7.79;50.87;100760.63;4930533;29;20052;-92
2022/04/10 18:47:45;;;;;;;7.53;4.28;;;;;;;8.09;51.19;100825.66;4926462;29;20063;-89
2022/04/10 18:50:18;;;;;;;6.20;3.50;;;;;;;8.03;51.37;100809.13;4927434;29;20052;-90
2022/04/10 18:52:51;;;;;;;7.45;3.15;;;;;;;8.07;51.86;100824.81;4927317;29;20572;-91
2022/04/10 18:55:18;;;;;;;3.92;2.53;;;;;;;7.79;51.32;100776.47;4927839;29;20226;-92
2022/04/10 18:57:52;;;;;;;5.03;2.83;;;;;;;8.15;50.83;100840.44;4928627;29;20485;-90
2022/04/10 19:00:35;;;;;;;4.75;2.40;;;;;;;8.08;50.85;100852.94;4927025;29;20048;-90
2022/04/10 19:03:08;;;;;;;7.10;2.50;;;;;;;7.73;50.94;100803.84;4931646;29;20052;-89
2022/04/10 19:05:41;;;;;;;5.05;2.47;;;;;;;7.84;51.28;100843.13;4924423;29;20055;-90
2022/04/10 19:08:23;;;;;;;6.25;2.30;;;;;;;7.50;51.06;100794.88;4934683;29;20082;-89